Time;durP1;ratioP1;P1;durP2;ratioP2;P2;SDS_P1;SDS_P2;PMS_P1;PMS_P2;Temp;Humidity;BMP_temperature;BMP_pressure;BME280_temperature;BME280_humidity;BME280_pressure;Samples;Min_cycle;Max_cycle;Signal;HPM_P1;HPM_P2
2023/12/15 00:00:48;;;;;;;21.90;11.73;;;4.80;99.90;;;;;;5055791;28;20463;-78
2023/12/15 00:03:15;;;;;;;21.03;12.80;;;4.70;99.90;;;;;;5054241;28;20479;-80
2023/12/15 00:05:42;;;;;;;24.10;13.17;;;4.70;99.90;;;;;;5056926;28;20466;-81
2023/12/15 00:08:09;;;;;;;20.60;11.50;;;4.70;99.90;;;;;;5058663;28;20497;-81
2023/12/15 00:10:37;;;;;;;21.97;12.67;;;4.70;99.90;;;;;;5053400;28;21005;-80
2023/12/15 00:13:04;;;;;;;20.73;12.93;;;4.70;99.90;;;;;;5055811;28;20467;-80
2023/12/15 00:15:31;;;;;;;23.40;13.73;;;4.70;99.90;;;;;;5059292;28;20467;-81
2023/12/15 00:17:57;;;;;;;25.20;12.70;;;4.70;99.90;;;;;;5057684;28;20469;-81
2023/12/15 00:20:25;;;;;;;20.80;12.03;;;4.70;99.90;;;;;;5054986;28;20545;-80
2023/12/15 00:22:51;;;;;;;20.77;12.30;;;4.80;99.90;;;;;;5056378;28;20539;-79
2023/12/15 00:25:18;;;;;;;22.67;13.17;;;4.80;99.90;;;;;;5055373;28;20481;-80
2023/12/15 00:27:48;;;;;;;24.93;15.20;;;4.90;99.90;;;;;;5055742;28;20479;-79
2023/12/15 00:30:15;;;;;;;21.00;13.20;;;5.00;99.90;;;;;;5054330;28;20490;-80
2023/12/15 00:32:42;;;;;;;23.17;14.40;;;5.10;99.90;;;;;;5054789;28;20517;-80
2023/12/15 00:35:09;;;;;;;23.10;13.40;;;5.20;99.90;;;;;;5055561;28;20486;-78
2023/12/15 00:37:36;;;;;;;26.17;14.60;;;5.30;99.90;;;;;;5054702;28;20902;-81
2023/12/15 00:40:03;;;;;;;24.63;14.23;;;5.30;99.90;;;;;;5054428;28;20483;-80
2023/12/15 00:42:30;;;;;;;22.87;14.57;;;5.40;99.90;;;;;;5045473;28;20494;-78
2023/12/15 00:45:05;;;;;;;26.77;13.90;;;5.50;99.90;;;;;;5049151;28;20499;-81
2023/12/15 00:47:32;;;;;;;28.03;14.27;;;5.50;99.90;;;;;;5054797;28;20474;-80
2023/12/15 00:50:01;;;;;;;22.93;14.67;;;5.50;99.90;;;;;;5049588;28;20490;-80
2023/12/15 00:52:28;;;;;;;23.50;13.50;;;5.60;99.90;;;;;;5054472;28;20468;-79
2023/12/15 00:54:55;;;;;;;21.57;12.63;;;5.70;99.90;;;;;;5049441;28;20994;-81
2023/12/15 00:57:22;;;;;;;21.00;13.03;;;5.70;99.90;;;;;;5056280;28;20498;-79
2023/12/15 00:59:50;;;;;;;25.73;14.47;;;5.60;99.90;;;;;;5056090;28;21042;-80
2023/12/15 01:02:18;;;;;;;22.17;13.03;;;5.70;99.90;;;;;;5048316;28;21011;-79
2023/12/15 01:04:45;;;;;;;26.67;15.77;;;5.80;99.90;;;;;;5049020;28;20463;-80
2023/12/15 01:07:12;;;;;;;22.67;11.90;;;5.80;99.90;;;;;;5057432;28;20462;-80
2023/12/15 01:09:39;;;;;;;22.47;14.03;;;5.90;99.90;;;;;;5055922;28;20520;-80
2023/12/15 01:12:06;;;;;;;21.57;13.47;;;6.00;99.90;;;;;;5056478;28;20465;-78
2023/12/15 01:14:32;;;;;;;22.73;13.23;;;6.00;99.90;;;;;;5056118;28;20454;-79
2023/12/15 01:17:00;;;;;;;21.30;12.07;;;6.10;99.90;;;;;;5056647;28;20463;-78
2023/12/15 01:19:28;;;;;;;18.17;11.03;;;6.10;99.90;;;;;;5047077;28;20470;-79
2023/12/15 01:21:55;;;;;;;21.43;13.73;;;6.20;99.90;;;;;;5054783;28;20452;-79
2023/12/15 01:24:22;;;;;;;19.60;11.70;;;6.10;99.90;;;;;;5055713;28;20460;-79
2023/12/15 01:26:49;;;;;;;19.47;11.33;;;6.20;99.90;;;;;;5047059;28;20452;-78
2023/12/15 01:29:16;;;;;;;22.53;12.40;;;6.20;99.90;;;;;;5054563;28;21079;-81
2023/12/15 01:31:43;;;;;;;20.83;13.60;;;6.20;99.90;;;;;;5052172;28;20844;-78
2023/12/15 01:34:10;;;;;;;18.10;11.27;;;6.30;99.90;;;;;;5035937;28;20464;-79
2023/12/15 01:36:38;;;;;;;21.37;12.17;;;6.30;99.90;;;;;;5035033;28;20470;-81
2023/12/15 01:39:04;;;;;;;22.93;13.83;;;6.30;99.90;;;;;;5046911;28;20478;-81
2023/12/15 01:41:31;;;;;;;20.90;12.87;;;6.20;99.90;;;;;;5052911;28;20551;-78
2023/12/15 01:43:58;;;;;;;18.63;11.30;;;6.30;99.90;;;;;;5045931;28;20456;-81
2023/12/15 01:46:25;;;;;;;20.30;11.53;;;6.30;99.90;;;;;;5055386;28;20456;-79
2023/12/15 01:48:53;;;;;;;21.67;12.17;;;6.30;99.90;;;;;;5058028;28;20509;-80
2023/12/15 01:51:20;;;;;;;18.77;11.70;;;6.30;99.90;;;;;;5059338;28;20456;-79
2023/12/15 01:53:48;;;;;;;23.47;13.80;;;6.40;99.90;;;;;;5046232;28;20456;-79
2023/12/15 01:56:15;;;;;;;18.30;11.57;;;6.40;99.90;;;;;;5054849;28;20463;-80
2023/12/15 01:58:41;;;;;;;16.60;12.13;;;6.40;99.90;;;;;;5057496;28;20479;-79
2023/12/15 02:01:08;;;;;;;18.93;12.40;;;6.40;99.90;;;;;;5056826;28;20506;-79
2023/12/15 02:03:41;;;;;;;19.47;11.93;;;6.30;99.90;;;;;;5038931;28;20452;-80
2023/12/15 02:06:08;;;;;;;19.33;11.67;;;6.40;99.90;;;;;;5037859;28;20447;-80
2023/12/15 02:08:34;;;;;;;24.57;13.43;;;6.40;99.90;;;;;;5037195;28;20472;-79
2023/12/15 02:11:03;;;;;;;19.57;12.53;;;6.40;99.90;;;;;;4874108;28;4916056;-80
2023/12/15 02:13:30;;;;;;;21.87;13.27;;;6.50;99.90;;;;;;5041422;28;20457;-78
2023/12/15 02:15:56;;;;;;;21.70;11.60;;;6.40;99.90;;;;;;5051857;28;20456;-79
2023/12/15 02:18:23;;;;;;;20.10;12.40;;;6.40;99.90;;;;;;5058914;28;20463;-81
2023/12/15 02:20:50;;;;;;;19.03;11.23;;;6.40;99.90;;;;;;5058417;28;20950;-79
2023/12/15 02:23:18;;;;;;;17.97;12.37;;;6.40;99.90;;;;;;5056668;28;20453;-80
2023/12/15 02:25:45;;;;;;;16.73;10.80;;;6.50;99.90;;;;;;5057424;28;20561;-79
2023/12/15 02:28:11;;;;;;;22.40;12.23;;;6.50;99.90;;;;;;5052463;28;20456;-79
2023/12/15 02:30:38;;;;;;;16.90;11.83;;;6.50;99.90;;;;;;5057377;28;20491;-81
2023/12/15 02:33:05;;;;;;;16.10;11.27;;;6.60;99.90;;;;;;5051626;28;20457;-78
2023/12/15 02:35:32;;;;;;;17.20;11.70;;;6.60;99.90;;;;;;5059124;28;20558;-79
2023/12/15 02:38:00;;;;;;;21.00;13.00;;;6.60;99.90;;;;;;5059333;28;20863;-80
2023/12/15 02:40:28;;;;;;;19.43;12.33;;;6.60;99.90;;;;;;5058599;28;20533;-79
2023/12/15 02:42:55;;;;;;;14.70;11.27;;;6.70;99.90;;;;;;5060999;28;20448;-80
2023/12/15 02:45:27;;;;;;;19.20;12.13;;;6.70;99.90;;;;;;5051816;28;20461;-79
2023/12/15 02:47:54;;;;;;;20.83;13.00;;;6.60;99.90;;;;;;5059179;28;20463;-78
2023/12/15 02:50:21;;;;;;;19.67;12.93;;;6.60;99.90;;;;;;5058544;28;20491;-80
2023/12/15 02:52:48;;;;;;;20.10;13.20;;;6.50;99.90;;;;;;5058928;28;20803;-81
2023/12/15 02:55:15;;;;;;;23.10;15.60;;;6.60;99.90;;;;;;5059227;28;20458;-80
2023/12/15 02:57:43;;;;;;;20.30;13.57;;;6.50;99.90;;;;;;5058680;28;20460;-78
2023/12/15 03:00:11;;;;;;;22.30;12.87;;;6.40;99.90;;;;;;5055474;28;20476;-80
2023/12/15 03:02:40;;;;;;;24.87;13.10;;;6.50;99.90;;;;;;5059206;28;20473;-79
2023/12/15 03:05:07;;;;;;;27.63;14.33;;;6.50;99.90;;;;;;5060360;28;20458;-78
2023/12/15 03:07:34;;;;;;;19.93;12.47;;;6.50;99.90;;;;;;5060035;28;20511;-80
2023/12/15 03:10:01;;;;;;;25.73;14.20;;;6.50;99.90;;;;;;5057740;28;20498;-79
2023/12/15 03:12:29;;;;;;;24.10;13.47;;;6.60;99.90;;;;;;5058913;28;20942;-81
2023/12/15 03:14:58;;;;;;;24.13;14.40;;;6.70;99.90;;;;;;5059067;28;20916;-80
2023/12/15 03:17:25;;;;;;;22.90;13.67;;;6.70;99.90;;;;;;5059256;28;20982;-79
2023/12/15 03:19:52;;;;;;;16.93;12.00;;;6.70;99.90;;;;;;5056689;28;20471;-79
2023/12/15 03:22:18;;;;;;;20.37;13.07;;;6.70;99.90;;;;;;5051224;28;20946;-78
2023/12/15 03:24:45;;;;;;;21.87;13.20;;;6.70;99.90;;;;;;5050355;28;20941;-79
2023/12/15 03:27:12;;;;;;;22.40;13.67;;;6.70;99.90;;;;;;5057318;28;20453;-80
2023/12/15 03:29:39;;;;;;;19.37;14.20;;;6.80;99.90;;;;;;5057446;28;20490;-78
2023/12/15 03:32:07;;;;;;;17.93;13.03;;;6.80;99.90;;;;;;5058590;28;20458;-79
2023/12/15 03:34:34;;;;;;;17.20;12.47;;;6.80;99.90;;;;;;5050305;28;20456;-80
2023/12/15 03:37:01;;;;;;;20.93;12.70;;;6.80;99.90;;;;;;5049482;28;20647;-81
2023/12/15 03:39:27;;;;;;;19.97;12.37;;;6.80;99.90;;;;;;5056909;28;20468;-79
2023/12/15 03:41:57;;;;;;;18.13;13.83;;;6.90;99.90;;;;;;5058156;28;20458;-81
2023/12/15 03:44:24;;;;;;;17.33;12.70;;;6.80;99.90;;;;;;5057854;28;20456;-80
2023/12/15 03:46:50;;;;;;;20.43;13.27;;;6.80;99.90;;;;;;5057313;28;20453;-79
2023/12/15 03:49:19;;;;;;;23.70;14.50;;;6.80;99.90;;;;;;5056519;28;20498;-79
2023/12/15 03:51:46;;;;;;;24.53;14.43;;;6.70;99.90;;;;;;5043858;28;20449;-79
2023/12/15 03:54:16;;;;;;;24.07;15.83;;;6.80;99.90;;;;;;5051867;28;20455;-79
2023/12/15 03:56:42;;;;;;;23.23;14.37;;;6.80;99.90;;;;;;5047745;28;20970;-79
2023/12/15 03:59:09;;;;;;;23.17;14.70;;;6.70;99.90;;;;;;5040693;28;20958;-81
2023/12/15 04:01:36;;;;;;;16.47;13.57;;;6.80;99.90;;;;;;5052580;28;20457;-81
2023/12/15 04:04:03;;;;;;;21.90;15.57;;;6.70;99.90;;;;;;5050197;28;20450;-81
2023/12/15 04:06:31;;;;;;;20.90;13.67;;;6.70;99.90;;;;;;5055159;28;20463;-82
2023/12/15 04:08:58;;;;;;;21.23;13.30;;;6.80;99.90;;;;;;5067714;28;20601;-80
2023/12/15 04:11:24;;;;;;;18.13;13.53;;;6.80;99.90;;;;;;5071051;28;20543;-82
2023/12/15 04:13:51;;;;;;;22.73;16.10;;;6.80;99.90;;;;;;5069573;28;20657;-82
2023/12/15 04:16:18;;;;;;;22.40;14.50;;;6.80;99.90;;;;;;5066976;28;20535;-82
2023/12/15 04:18:45;;;;;;;25.60;14.57;;;6.80;99.90;;;;;;5058613;28;20551;-81
2023/12/15 04:21:11;;;;;;;23.77;15.37;;;6.80;99.90;;;;;;5068529;28;20455;-82
2023/12/15 04:23:39;;;;;;;22.57;14.10;;;6.90;99.90;;;;;;5068859;28;20527;-82
2023/12/15 04:26:09;;;;;;;28.73;15.37;;;7.00;99.90;;;;;;5068921;28;20451;-82
2023/12/15 04:28:36;;;;;;;20.90;14.00;;;7.00;99.90;;;;;;5067021;28;20527;-81
2023/12/15 04:31:03;;;;;;;23.30;14.37;;;7.00;99.90;;;;;;5068774;28;20551;-82
2023/12/15 04:33:29;;;;;;;19.80;14.70;;;7.00;99.90;;;;;;5062312;28;20470;-82
2023/12/15 04:35:56;;;;;;;23.87;13.70;;;7.00;99.90;;;;;;5056796;28;20459;-83
2023/12/15 04:38:23;;;;;;;22.03;14.53;;;7.10;99.90;;;;;;5047848;28;20510;-82
2023/12/15 04:40:51;;;;;;;21.53;15.20;;;7.10;99.90;;;;;;5056060;28;20451;-83
2023/12/15 04:43:18;;;;;;;24.83;15.30;;;7.10;99.90;;;;;;5056530;28;20459;-82
2023/12/15 04:45:45;;;;;;;21.57;14.80;;;7.00;99.90;;;;;;5055986;28;20459;-83
2023/12/15 04:48:11;;;;;;;26.83;14.70;;;7.00;99.90;;;;;;5056024;28;20457;-80
2023/12/15 04:50:40;;;;;;;19.27;13.40;;;7.00;99.90;;;;;;5047734;28;20490;-82
2023/12/15 04:53:07;;;;;;;22.90;16.33;;;7.10;99.90;;;;;;5056151;28;20456;-83
2023/12/15 04:55:33;;;;;;;20.40;12.97;;;7.00;99.90;;;;;;5047706;28;20478;-82
2023/12/15 04:58:02;;;;;;;20.97;14.60;;;6.90;99.90;;;;;;5056103;28;20456;-80
2023/12/15 05:00:28;;;;;;;28.03;15.73;;;6.90;99.90;;;;;;5053277;28;20576;-82
2023/12/15 05:02:55;;;;;;;24.47;16.00;;;6.80;99.90;;;;;;5056187;28;20447;-79
2023/12/15 05:05:22;;;;;;;19.30;12.17;;;6.80;99.90;;;;;;5055706;28;20462;-81
2023/12/15 05:07:50;;;;;;;27.30;16.03;;;6.80;99.90;;;;;;5048901;28;20444;-81
2023/12/15 05:10:16;;;;;;;22.43;14.83;;;6.80;99.90;;;;;;5055795;28;20497;-81
2023/12/15 05:12:43;;;;;;;21.57;15.07;;;6.80;99.90;;;;;;5056431;28;20458;-80
2023/12/15 05:15:11;;;;;;;26.80;16.40;;;6.80;99.90;;;;;;5050985;28;21015;-81
2023/12/15 05:17:38;;;;;;;24.93;15.80;;;6.80;99.90;;;;;;5050173;28;20458;-81
2023/12/15 05:20:06;;;;;;;28.57;17.50;;;6.90;99.90;;;;;;5054554;28;20475;-81
2023/12/15 05:22:33;;;;;;;29.93;16.40;;;6.80;99.90;;;;;;5061135;28;20455;-82
2023/12/15 05:25:00;;;;;;;25.70;15.13;;;6.80;99.90;;;;;;5056152;28;20958;-81
2023/12/15 05:27:27;;;;;;;24.13;15.43;;;6.80;99.90;;;;;;5056184;28;20461;-83
2023/12/15 05:29:53;;;;;;;34.27;18.37;;;6.80;99.90;;;;;;5056026;28;20469;-82
2023/12/15 05:32:22;;;;;;;21.30;14.30;;;6.90;99.90;;;;;;5059921;28;20455;-82
2023/12/15 05:34:48;;;;;;;28.90;16.83;;;6.90;99.90;;;;;;5060254;28;20994;-81
2023/12/15 05:37:15;;;;;;;30.50;16.07;;;6.90;99.90;;;;;;5055285;28;20936;-81
2023/12/15 05:39:44;;;;;;;24.27;15.90;;;6.90;99.90;;;;;;5047746;28;20847;-80
2023/12/15 05:42:11;;;;;;;31.90;17.87;;;6.80;99.90;;;;;;5058860;28;21054;-81
2023/12/15 05:44:40;;;;;;;36.47;18.33;;;6.80;99.90;;;;;;5055259;28;20447;-81
2023/12/15 05:47:07;;;;;;;27.03;16.67;;;6.80;99.90;;;;;;5059331;28;20981;-83
2023/12/15 05:49:38;;;;;;;38.90;20.17;;;6.80;99.90;;;;;;5058341;28;20468;-81
2023/12/15 05:52:06;;;;;;;23.70;17.20;;;6.80;99.90;;;;;;5050142;28;20849;-80
2023/12/15 05:54:32;;;;;;;28.47;17.30;;;6.80;99.90;;;;;;5058879;28;20462;-81
2023/12/15 05:56:59;;;;;;;31.50;17.80;;;6.90;99.90;;;;;;5059836;28;20465;-81
2023/12/15 05:59:26;;;;;;;38.50;19.13;;;6.90;99.90;;;;;;5059293;28;20476;-81
2023/12/15 06:01:53;;;;;;;31.67;17.90;;;6.90;99.90;;;;;;5061200;28;20454;-82
2023/12/15 06:04:22;;;;;;;32.90;19.53;;;6.90;99.90;;;;;;5052017;28;20459;-82
2023/12/15 06:06:51;;;;;;;33.27;19.17;;;6.90;99.90;;;;;;5060338;28;20539;-80
2023/12/15 06:09:17;;;;;;;41.10;19.53;;;6.90;99.90;;;;;;5053980;28;20481;-81
2023/12/15 06:11:44;;;;;;;32.50;17.60;;;6.90;99.90;;;;;;5062690;28;20486;-81
2023/12/15 06:14:11;;;;;;;32.73;17.90;;;7.00;99.90;;;;;;5055984;28;20455;-80
2023/12/15 06:16:38;;;;;;;42.43;21.70;;;7.10;99.90;;;;;;5062628;28;21202;-81
2023/12/15 06:19:05;;;;;;;45.50;21.63;;;7.00;99.90;;;;;;5059183;28;20849;-78
2023/12/15 06:21:32;;;;;;;33.43;19.40;;;6.90;99.90;;;;;;5052458;28;20505;-80
2023/12/15 06:24:00;;;;;;;37.97;21.30;;;7.00;99.90;;;;;;5051424;28;20455;-79
2023/12/15 06:26:27;;;;;;;40.17;21.40;;;7.10;99.90;;;;;;5047027;28;20456;-79
2023/12/15 06:28:54;;;;;;;36.23;21.17;;;7.00;99.90;;;;;;5057059;28;20998;-79
2023/12/15 06:31:21;;;;;;;36.00;20.10;;;7.00;99.90;;;;;;5057289;28;20488;-80
2023/12/15 06:33:48;;;;;;;37.30;19.17;;;7.00;99.90;;;;;;5053519;28;20455;-82
2023/12/15 06:36:15;;;;;;;33.13;18.23;;;7.10;99.90;;;;;;5038005;28;20460;-81
2023/12/15 06:38:43;;;;;;;38.17;20.57;;;7.20;99.90;;;;;;5056239;28;20473;-80
2023/12/15 06:41:11;;;;;;;35.40;20.00;;;7.20;99.90;;;;;;5048659;28;20457;-80
2023/12/15 06:43:39;;;;;;;34.70;21.17;;;7.20;99.90;;;;;;5049185;28;20969;-81
2023/12/15 06:46:07;;;;;;;36.53;20.87;;;7.20;99.90;;;;;;5057844;28;20462;-82
2023/12/15 06:48:34;;;;;;;34.57;19.40;;;7.20;99.90;;;;;;5056866;28;20481;-81
2023/12/15 06:51:00;;;;;;;39.03;23.40;;;7.30;99.90;;;;;;5057149;28;20507;-82
2023/12/15 06:53:27;;;;;;;36.77;22.03;;;7.30;99.90;;;;;;5060562;28;20867;-82
2023/12/15 06:55:54;;;;;;;42.20;21.33;;;7.30;99.90;;;;;;5060510;28;20529;-80
2023/12/15 06:58:22;;;;;;;38.43;19.60;;;7.20;99.90;;;;;;5059168;28;20460;-81
2023/12/15 07:00:49;;;;;;;36.77;19.80;;;7.20;99.90;;;;;;5057800;28;20448;-81
2023/12/15 07:03:16;;;;;;;42.67;21.47;;;7.10;99.90;;;;;;5058773;28;20981;-79
2023/12/15 07:05:43;;;;;;;35.60;20.50;;;7.20;99.90;;;;;;5058820;28;20528;-80
2023/12/15 07:08:12;;;;;;;35.10;20.87;;;7.20;99.90;;;;;;5058426;28;20458;-82
2023/12/15 07:10:40;;;;;;;37.83;19.40;;;7.30;99.90;;;;;;5057414;28;20642;-80
2023/12/15 07:13:07;;;;;;;40.03;22.27;;;7.20;99.90;;;;;;5055863;28;20511;-81
2023/12/15 07:15:35;;;;;;;45.93;23.37;;;7.10;99.90;;;;;;5058491;28;20467;-81
2023/12/15 07:18:02;;;;;;;37.63;20.03;;;7.10;99.90;;;;;;5058440;28;20525;-82
2023/12/15 07:20:29;;;;;;;40.57;20.20;;;7.40;99.90;;;;;;5055625;28;20478;-81
2023/12/15 07:22:56;;;;;;;47.20;24.00;;;7.20;99.90;;;;;;5053519;28;20471;-82
2023/12/15 07:25:24;;;;;;;47.10;24.63;;;7.30;99.90;;;;;;5053216;28;20463;-82
2023/12/15 07:27:51;;;;;;;49.40;23.07;;;7.30;99.90;;;;;;5056468;28;20492;-80
2023/12/15 07:30:18;;;;;;;47.40;21.83;;;7.30;99.90;;;;;;5063032;28;20503;-79
2023/12/15 07:32:46;;;;;;;36.40;20.67;;;7.20;99.90;;;;;;5060257;28;20524;-79
2023/12/15 07:35:13;;;;;;;43.37;22.00;;;7.30;99.90;;;;;;5052240;28;20444;-79
2023/12/15 07:37:39;;;;;;;38.37;18.97;;;7.30;99.90;;;;;;5058581;28;20460;-80
2023/12/15 07:40:07;;;;;;;46.37;20.80;;;7.20;99.90;;;;;;5057601;28;21014;-79
2023/12/15 07:42:34;;;;;;;43.27;23.30;;;7.30;99.90;;;;;;5047126;28;20534;-82
2023/12/15 07:45:01;;;;;;;43.63;20.10;;;7.30;99.90;;;;;;5055510;28;20446;-80
2023/12/15 07:47:28;;;;;;;47.83;21.40;;;7.20;99.90;;;;;;5055305;28;20541;-81
2023/12/15 07:49:56;;;;;;;38.13;20.83;;;7.30;99.90;;;;;;5057914;28;20467;-80
2023/12/15 07:52:25;;;;;;;48.13;20.80;;;7.30;99.90;;;;;;5053614;28;20492;-80
2023/12/15 07:54:51;;;;;;;43.00;22.37;;;7.40;99.90;;;;;;5052767;28;20444;-80
2023/12/15 07:57:19;;;;;;;48.87;21.90;;;7.30;99.90;;;;;;5052927;28;20450;-80
2023/12/15 07:59:47;;;;;;;46.97;20.83;;;7.40;99.90;;;;;;5048576;28;20504;-80
2023/12/15 08:02:19;;;;;;;43.30;20.63;;;7.40;99.90;;;;;;5060022;28;20459;-79
2023/12/15 08:04:46;;;;;;;55.00;23.17;;;7.40;99.90;;;;;;5050329;28;20443;-81
2023/12/15 08:07:14;;;;;;;46.37;22.67;;;7.50;99.90;;;;;;5058335;28;20449;-81
2023/12/15 08:09:41;;;;;;;48.10;24.87;;;7.50;99.90;;;;;;5056465;28;20483;-81
2023/12/15 08:12:09;;;;;;;41.63;20.73;;;7.50;99.90;;;;;;5060812;28;20491;-80
2023/12/15 08:14:36;;;;;;;43.57;20.50;;;7.50;99.90;;;;;;5054644;28;20547;-80
2023/12/15 08:17:03;;;;;;;58.43;22.20;;;7.60;99.90;;;;;;5055717;28;21008;-81
2023/12/15 08:19:31;;;;;;;43.50;20.60;;;7.60;99.90;;;;;;5046659;28;20499;-81
2023/12/15 08:21:58;;;;;;;51.80;23.67;;;7.70;99.90;;;;;;5056326;28;20480;-79
2023/12/15 08:24:26;;;;;;;53.03;23.53;;;7.70;99.90;;;;;;5058570;28;20506;-79
2023/12/15 08:26:53;;;;;;;45.27;21.40;;;7.80;99.90;;;;;;5061067;28;20525;-79
2023/12/15 08:29:20;;;;;;;51.37;24.40;;;7.80;99.90;;;;;;5063002;28;20473;-79
2023/12/15 08:31:48;;;;;;;46.33;20.77;;;7.80;99.90;;;;;;5059880;28;20576;-81
2023/12/15 08:34:15;;;;;;;57.80;24.00;;;7.80;99.90;;;;;;5056239;28;20861;-81
2023/12/15 08:36:43;;;;;;;44.70;21.43;;;7.80;99.90;;;;;;5054413;28;20456;-80
2023/12/15 08:39:10;;;;;;;63.83;26.03;;;7.70;99.90;;;;;;5053183;28;21009;-79
2023/12/15 08:41:38;;;;;;;47.53;22.10;;;7.60;99.90;;;;;;5057379;28;20454;-80
2023/12/15 08:44:05;;;;;;;54.47;22.50;;;7.70;99.90;;;;;;5058170;28;20521;-80
2023/12/15 08:46:32;;;;;;;47.40;23.10;;;7.80;99.90;;;;;;5053233;28;20455;-78
2023/12/15 08:48:58;;;;;;;54.13;23.70;;;7.70;99.90;;;;;;5056789;28;20478;-78
2023/12/15 08:51:25;;;;;;;47.70;21.30;;;7.90;99.90;;;;;;5059339;28;20493;-80
2023/12/15 08:53:52;;;;;;;48.47;21.50;;;7.90;99.90;;;;;;5059210;28;20851;-80
2023/12/15 08:56:19;;;;;;;46.57;20.77;;;8.00;99.90;;;;;;5053554;28;20554;-80
2023/12/15 08:58:47;;;;;;;51.37;22.40;;;8.10;99.90;;;;;;5053310;28;20504;-79
2023/12/15 09:01:14;;;;;;;45.07;21.93;;;8.20;99.90;;;;;;5047336;28;20451;-80
2023/12/15 09:03:40;;;;;;;48.77;23.00;;;8.30;99.90;;;;;;5052620;28;20472;-79
2023/12/15 09:06:11;;;;;;;45.53;21.10;;;8.20;99.90;;;;;;5056054;28;20445;-81
2023/12/15 09:08:38;;;;;;;42.33;20.27;;;8.40;99.90;;;;;;5054830;28;20506;-81
2023/12/15 09:11:05;;;;;;;39.60;18.90;;;8.40;99.90;;;;;;5052115;28;20474;-79
2023/12/15 09:13:32;;;;;;;43.57;20.40;;;8.50;99.90;;;;;;5047878;28;20458;-79
2023/12/15 09:16:00;;;;;;;38.90;21.83;;;8.50;99.90;;;;;;5057348;28;20453;-80
2023/12/15 09:18:27;;;;;;;38.47;18.90;;;8.50;99.90;;;;;;5051360;28;20463;-83
2023/12/15 09:20:54;;;;;;;36.17;19.17;;;8.50;99.90;;;;;;5049803;28;20469;-81
2023/12/15 09:23:21;;;;;;;43.77;21.17;;;8.50;99.90;;;;;;5052445;28;20826;-80
2023/12/15 09:25:49;;;;;;;45.50;20.23;;;8.30;99.90;;;;;;5048491;28;20517;-82
2023/12/15 09:31:19;;;;;;;45.37;22.27;;;8.50;99.90;;;;;;5055402;28;20486;-81
2023/12/15 09:33:49;;;;;;;45.30;20.87;;;8.40;99.90;;;;;;5045615;28;20535;-80
2023/12/15 09:36:15;;;;;;;45.07;19.27;;;8.30;99.90;;;;;;5049616;28;20452;-82
2023/12/15 09:38:42;;;;;;;39.87;22.40;;;8.40;99.90;;;;;;5053700;28;20477;-80
2023/12/15 09:41:09;;;;;;;43.33;21.10;;;8.50;99.90;;;;;;5055754;28;20461;-80
2023/12/15 09:43:36;;;;;;;40.93;20.83;;;8.60;99.90;;;;;;5053243;28;20454;-81
2023/12/15 09:46:10;;;;;;;43.90;21.47;;;8.50;99.90;;;;;;5053919;28;20555;-80
2023/12/15 09:48:39;;;;;;;40.40;22.43;;;8.50;99.90;;;;;;5051321;28;20942;-80
2023/12/15 09:51:17;;;;;;;42.83;20.33;;;8.40;99.90;;;;;;5047620;28;20520;-81
2023/12/15 09:53:48;;;;;;;48.90;21.43;;;8.50;99.90;;;;;;5046806;28;20449;-81
2023/12/15 09:56:18;;;;;;;46.07;22.87;;;8.50;99.90;;;;;;5047390;28;20448;-80
2023/12/15 09:58:46;;;;;;;45.27;20.63;;;8.50;99.90;;;;;;5048970;28;20474;-80
2023/12/15 10:01:16;;;;;;;46.23;21.47;;;8.60;99.90;;;;;;5052405;28;20454;-80
2023/12/15 10:03:44;;;;;;;50.97;22.63;;;8.50;99.90;;;;;;5054023;28;20446;-80
2023/12/15 10:06:11;;;;;;;50.50;22.13;;;8.60;99.90;;;;;;5054542;28;20445;-80
2023/12/15 10:08:42;;;;;;;49.13;20.27;;;8.70;99.90;;;;;;5057170;28;20466;-81
2023/12/15 10:11:09;;;;;;;43.57;22.93;;;8.80;99.90;;;;;;5054471;28;20508;-81
2023/12/15 10:13:40;;;;;;;43.10;21.00;;;8.70;99.90;;;;;;5054795;28;20453;-79
2023/12/15 10:16:10;;;;;;;45.03;22.57;;;8.80;99.90;;;;;;5053129;28;20454;-81
2023/12/15 10:18:38;;;;;;;43.93;20.97;;;8.90;99.90;;;;;;5045989;28;20978;-82
2023/12/15 10:21:09;;;;;;;39.37;21.33;;;9.00;99.90;;;;;;5036687;28;20454;-80
2023/12/15 10:23:38;;;;;;;45.47;22.70;;;8.90;99.90;;;;;;5036883;28;20447;-80
2023/12/15 10:26:05;;;;;;;39.70;21.13;;;8.90;99.90;;;;;;5043447;28;20462;-80
2023/12/15 10:28:36;;;;;;;46.27;22.97;;;9.00;99.90;;;;;;5055795;28;20480;-79
2023/12/15 10:31:03;;;;;;;40.13;21.40;;;9.10;99.90;;;;;;5057644;28;20462;-81
2023/12/15 10:33:34;;;;;;;40.13;21.00;;;9.10;99.90;;;;;;5057011;28;20490;-80
2023/12/15 10:36:06;;;;;;;40.43;21.07;;;9.10;99.90;;;;;;5056427;28;20943;-81
2023/12/15 10:38:35;;;;;;;40.50;20.83;;;9.20;99.90;;;;;;5056059;28;20497;-80
2023/12/15 10:41:09;;;;;;;41.80;21.90;;;9.20;99.90;;;;;;5050309;28;20462;-80
2023/12/15 10:43:40;;;;;;;42.00;23.67;;;9.20;99.90;;;;;;5053981;28;20451;-79
2023/12/15 10:46:10;;;;;;;50.03;22.40;;;9.30;99.90;;;;;;5060087;28;20470;-80
2023/12/15 10:48:39;;;;;;;44.63;23.57;;;9.30;99.90;;;;;;5067328;28;20485;-80
2023/12/15 10:51:11;;;;;;;52.37;24.80;;;9.40;99.90;;;;;;5055397;28;20458;-79
2023/12/15 10:53:43;;;;;;;46.10;22.80;;;9.30;99.90;;;;;;5056944;28;20487;-80
2023/12/15 10:56:10;;;;;;;52.73;24.70;;;9.30;99.90;;;;;;5058780;28;20871;-81
2023/12/15 10:58:37;;;;;;;46.37;22.47;;;9.20;99.90;;;;;;5056653;28;20850;-79
2023/12/15 11:01:09;;;;;;;39.67;20.60;;;9.20;99.90;;;;;;5059657;28;20454;-81
2023/12/15 11:03:36;;;;;;;41.37;21.73;;;9.10;99.90;;;;;;5055520;28;20447;-81
2023/12/15 11:06:05;;;;;;;37.73;22.90;;;9.20;99.90;;;;;;5059110;28;20554;-79
2023/12/15 11:08:35;;;;;;;35.83;20.80;;;9.30;99.90;;;;;;5062168;28;20460;-81
2023/12/15 11:11:07;;;;;;;49.33;22.40;;;9.20;99.90;;;;;;5059834;28;20463;-82
2023/12/15 11:13:57;;;;;;;43.57;19.70;;;9.10;99.90;;;;;;5061155;28;20520;-82
2023/12/15 11:16:25;;;;;;;42.00;20.83;;;9.20;99.90;;;;;;5046105;28;20466;-80
2023/12/15 11:18:59;;;;;;;40.87;23.30;;;9.30;99.90;;;;;;5056413;28;20613;-83
2023/12/15 11:21:26;;;;;;;46.20;22.50;;;9.40;99.90;;;;;;5052120;28;20467;-82
2023/12/15 11:24:08;;;;;;;33.37;19.23;;;9.40;99.90;;;;;;5055563;28;20918;-82
2023/12/15 11:29:53;;;;;;;46.53;20.83;;;9.40;99.90;;;;;;4998527;28;20467;-82
2023/12/15 11:32:33;;;;;;;46.57;21.73;;;9.50;99.90;;;;;;5058637;28;20487;-82
2023/12/15 11:35:01;;;;;;;39.23;20.53;;;9.40;99.90;;;;;;5056836;28;20473;-83
2023/12/15 11:37:29;;;;;;;44.40;22.70;;;9.50;99.90;;;;;;5062449;28;20518;-83
2023/12/15 11:40:00;;;;;;;40.83;21.00;;;9.40;99.90;;;;;;5052251;28;20523;-82
2023/12/15 11:42:30;;;;;;;44.50;22.20;;;9.50;99.90;;;;;;5061891;28;20511;-82
2023/12/15 11:45:00;;;;;;;50.13;24.60;;;9.60;99.90;;;;;;5048229;28;20523;-82
2023/12/15 11:47:32;;;;;;;39.00;21.73;;;9.60;99.90;;;;;;5059779;28;20455;-79
2023/12/15 11:49:59;;;;;;;39.03;22.30;;;9.60;99.90;;;;;;5046738;28;20475;-80
2023/12/15 11:52:26;;;;;;;42.67;21.73;;;9.70;99.90;;;;;;5057919;28;20487;-81
2023/12/15 11:54:52;;;;;;;40.20;20.10;;;9.70;99.90;;;;;;5054050;28;20543;-80
2023/12/15 11:57:19;;;;;;;45.03;23.80;;;9.70;99.90;;;;;;5053830;28;20524;-82
2023/12/15 11:59:46;;;;;;;46.40;22.30;;;9.70;99.90;;;;;;5054450;28;20507;-78
2023/12/15 12:02:17;;;;;;;45.47;23.30;;;9.70;99.90;;;;;;5053807;28;20447;-82
2023/12/15 12:04:47;;;;;;;43.77;21.93;;;9.70;99.90;;;;;;5061184;28;20522;-82
2023/12/15 12:07:14;;;;;;;41.30;21.93;;;9.60;99.90;;;;;;5053381;28;20524;-82
2023/12/15 12:09:41;;;;;;;42.30;21.13;;;9.70;99.90;;;;;;5059073;28;20522;-80
2023/12/15 12:12:08;;;;;;;38.33;21.70;;;9.70;99.90;;;;;;5051978;28;20572;-80
2023/12/15 12:14:40;;;;;;;47.60;22.50;;;9.70;99.90;;;;;;5060655;28;20455;-80
2023/12/15 12:17:09;;;;;;;41.80;23.17;;;9.70;99.90;;;;;;5060927;28;20547;-81
2023/12/15 12:19:42;;;;;;;42.20;22.67;;;9.70;99.90;;;;;;5052232;28;20558;-80
2023/12/15 12:22:11;;;;;;;40.37;21.57;;;9.70;99.90;;;;;;5055618;28;20467;-80
2023/12/15 12:24:38;;;;;;;36.63;21.33;;;9.70;99.90;;;;;;5050165;28;21099;-83
2023/12/15 12:27:07;;;;;;;37.97;18.50;;;9.80;99.90;;;;;;5040959;28;20463;-80
2023/12/15 12:29:35;;;;;;;38.20;20.17;;;9.70;99.90;;;;;;5059049;28;20482;-80
2023/12/15 12:32:05;;;;;;;41.40;20.23;;;9.80;99.90;;;;;;5066087;28;20816;-80
2023/12/15 12:34:35;;;;;;;38.50;19.23;;;9.90;99.90;;;;;;5055563;28;20479;-80
2023/12/15 12:37:03;;;;;;;41.00;20.70;;;9.90;99.90;;;;;;5049936;28;20494;-80
2023/12/15 12:39:30;;;;;;;35.73;19.27;;;9.90;99.90;;;;;;5058790;28;21066;-83
2023/12/15 12:41:57;;;;;;;33.33;20.20;;;9.90;99.90;;;;;;5060499;28;20455;-82
2023/12/15 12:44:28;;;;;;;40.70;19.70;;;10.00;99.90;;;;;;5059652;28;20463;-80